Weather observations for the past three days for
Sulphur Springs, Sulphur Springs Municipal Airport
Metric (Imperial)
Date Time (cdt) Wind (kph) Vis. (km) Weather Sky Cond. Temperature (ºC) Relative Humidity Wind Chill (°C) Heat Index (°C) Pressure Precipitation (cm)
Air Dwpt 6 hour altimeter (cm) sea level (mb) 1 hr 3 hr 6 hr
Max. Min.
05 08:35 S 31 G 44 16.09 Overcast SCT018 OVC026 22.1 19.3 84% 75.46 0.0
05 08:15 S 35 16.09 Overcast and Breezy OVC018 21.7 19.2 86% 75.46 0.0
05 07:55 S 26 G 35 16.09 Overcast OVC018 21.6 19.1 86% 75.46 0.0
05 07:35 SW 24 G 39 16.09 Overcast OVC018 21.5 19.1 86% 75.46 0.0
05 07:15 S 31 G 44 16.09 Overcast OVC020 21.5 19 86% 75.44 0.0
05 06:55 S 30 G 44 16.09 Overcast OVC020 21.5 18.8 22.5 21.5 85% 75.41 0.0
05 06:35 S 30 G 39 16.09 Overcast OVC022 21.5 18.7 84% 75.39 0.0
05 06:15 S 26 G 43 16.09 Overcast OVC022 21.6 18.6 83% 75.41 0.0
05 05:55 S 28 G 43 16.09 Overcast OVC022 21.6 18.6 83% 75.41 0.0
05 05:15 S 31 G 41 16.09 Overcast OVC020 21.7 18.7 83% 75.41 0.0
05 04:55 S 31 G 37 16.09 Overcast OVC018 21.7 18.6 83% 75.44 0.0
05 04:35 S 31 G 37 16.09 Overcast OVC018 21.6 18.5 83% 75.41 0.0
05 04:15 S 28 G 37 16.09 Overcast OVC018 21.6 18.5 83% 75.44 0.0
05 03:55 S 30 G 43 16.09 Overcast OVC018 21.6 18.3 82% 75.41 0.0
05 03:35 S 26 G 41 16.09 Overcast OVC020 21.6 18.1 81% 75.44 0.0
05 03:15 S 31 G 37 16.09 Mostly Cloudy BKN022 21.6 18 80% 75.44 0.0
05 02:55 S 28 G 43 16.09 Partly Cloudy SCT022 21.7 17.9 79% 75.46 0.0
05 02:35 S 33 G 41 16.09 Fair and Breezy CLR 22 17.7 77% 75.46 0.0
05 02:15 S 31 G 41 16.09 Fair CLR 22.1 17.7 76% 75.46 0.0
05 01:55 S 28 G 43 16.09 Fair CLR 22.1 17.5 75% 75.49 0.0
05 01:35 S 30 G 48 16.09 Fair CLR 22.5 17.5 73% 75.51 0.0
05 01:15 S 24 G 37 16.09 Fair CLR 22.5 17.3 73% 75.54 0.0
05 00:55 S 26 G 39 16.09 Fair CLR 22.5 17 25.4 22.3 71% 75.54 0.0
05 00:35 S 22 G 37 16.09 Fair CLR 22.4 16.8 71% 75.54 0.0
05 00:15 S 22 G 37 16.09 Fair CLR 22.5 16.5 69% 75.54 0.0
04 23:55 S 24 G 35 16.09 Fair CLR 22.5 16.5 69% 75.57 0.0
04 23:35 S 22 G 37 16.09 Fair CLR 22.5 16.1 67% 75.57 0.0
04 23:15 S 17 G 30 16.09 Fair CLR 22.5 16 67% 75.59 0.0
04 22:55 S 15 G 30 16.09 Fair CLR 22.7 15.9 66% 75.59 0.0
04 22:35 S 19 G 28 16.09 Fair CLR 22.8 15.6 64% 75.59 0.0
04 22:15 S 19 G 28 16.09 Fair CLR 22.9 15.5 63% 75.62 0.0
04 21:55 S 17 16.09 Fair CLR 23 15.5 63% 75.62 0.0
04 21:35 S 20 G 28 16.09 Fair CLR 23.2 15.3 61% 75.59 0.0
04 21:15 S 13 16.09 Fair CLR 23.2 15.2 61% 75.59 0.0
04 20:55 S 20 G 26 16.09 Fair CLR 23.3 15 60% 75.59 0.0
04 20:35 S 19 16.09 Fair CLR 23.6 14.8 58% 75.59 0.0
04 20:15 S 19 16.09 Fair CLR 24 14.6 56% 25 75.59 0.0
04 19:55 S 15 16.09 Fair CLR 24.1 14.3 54% 25 75.59 0.0
04 19:35 S 19 16.09 Fair CLR 24.7 13.9 51% 26 75.57 0.0
04 19:15 S 24 16.09 Fair CLR 25.1 13.5 49% 26 75.57 0.0
04 18:55 S 30 G 39 16.09 Fair CLR 25.5 13.4 27.1 24.3 47% 26 75.59 0.0
04 18:35 S 24 G 31 16.09 Fair CLR 25.6 13.4 47% 26 75.62 0.0
04 18:15 S 22 G 31 16.09 Fair CLR 26.2 13.1 44% 26 75.64 0.0
04 17:55 S 31 G 41 16.09 Fair CLR 26.4 12.5 42% 27 75.64 0.0
04 17:35 S 26 G 35 16.09 Fair CLR 26.5 12.6 42% 27 75.67 0.0
04 17:15 S 24 G 41 16.09 Fair CLR 26.7 12.7 42% 27 75.67 0.0
04 16:55 S 20 G 43 16.09 Fair CLR 26.7 12.2 41% 27 75.69 0.0
04 16:35 S 30 G 39 16.09 Fair CLR 27.1 12.2 40% 27 75.72 0.0
04 16:15 S 22 G 41 16.09 Fair CLR 26.9 11.5 38% 27 75.72 0.0
04 15:55 S 26 G 39 16.09 Fair CLR 26.5 11.5 39% 26 75.77 0.0
04 15:35 S 28 G 41 16.09 Fair CLR 25.8 11.2 40% 26 75.79 0.0
04 15:15 S 26 G 37 16.09 Fair CLR 26 10.9 39% 26 75.82 0.0
04 14:55 S 28 G 39 16.09 Fair CLR 25.9 10.9 39% 26 75.84 0.0
04 14:35 S 26 G 37 16.09 Fair CLR 25.7 11.1 40% 26 75.87 0.0
04 14:15 SE 24 G 31 16.09 Fair CLR 25.9 11.2 40% 26 75.9 0.0
04 13:55 S 26 G 39 16.09 Fair CLR 25.2 11 41% 26 75.92 0.0
04 13:35 S 24 G 37 16.09 Fair CLR 25.2 10.8 40% 26 75.95 0.0
04 13:15 S 28 G 39 16.09 Fair CLR 24.7 10.4 41% 26 75.97 0.0
04 12:55 S 28 G 39 16.09 Fair CLR 24.2 10.2 24.5 15.3 41% 25 76 0.0
04 12:35 S 28 G 35 16.09 Fair CLR 24.4 10.4 41% 25 76.02 0.0
04 12:15 S 26 16.09 Fair CLR 23.9 10 42% 25 76.05 0.0
04 11:55 S 33 G 43 16.09 Fair and Breezy CLR 23.7 9.8 41% 76.07 0.0
04 11:35 S 30 G 46 16.09 Fair CLR 23.3 9.5 42% 76.07 0.0
04 11:15 S 28 G 39 16.09 Fair CLR 23 10.3 45% 76.07 0.0
04 10:55 S 39 G 46 16.09 Fair and Breezy CLR 22.7 10.1 45% 76.07 0.0
04 10:35 S 37 G 46 16.09 Fair and Breezy CLR 22.1 10.4 48% 76.1 0.0
04 10:15 S 35 G 44 16.09 Fair and Breezy CLR 21.4 10.4 50% 76.1 0.0
04 09:55 S 33 G 44 16.09 Fair and Breezy CLR 21 10.6 52% 76.1 0.0
04 09:35 S 28 G 44 16.09 Fair CLR 20.5 11.2 55% 76.12 0.0
04 09:15 S 33 G 41 16.09 Fair and Breezy CLR 19.9 11.3 58% 76.12 0.0
04 08:55 S 26 16.09 Fair CLR 19 11.4 62% 76.12 0.0
04 08:35 SW 24 G 37 16.09 Fair CLR 18.2 11.5 65% 76.15 0.0
04 08:15 S 22 G 28 16.09 Fair CLR 17.5 11.5 68% 76.12 0.0
04 07:55 S 24 16.09 Fair CLR 17 11.5 70% 76.15 0.0
04 07:35 S 17 16.09 Fair CLR 16.2 11.3 73% 76.12 0.0
04 07:15 S 15 16.09 Fair CLR 15.5 11.2 76% 76.12 0.0
04 06:55 S 11 16.09 Fair CLR 15.3 11 17.5 15 76% 76.1 0.0
04 06:35 S 13 16.09 Fair CLR 15 11 77% 76.1 0.0
04 06:15 S 13 16.09 Fair CLR 15.2 10.8 75% 76.1 0.0
04 05:55 S 17 16.09 Fair CLR 15.3 10.8 75% 76.1 0.0
04 05:35 S 17 16.09 Fair CLR 15.5 10.8 74% 76.1 0.0
04 05:15 S 15 16.09 Fair CLR 15.6 10.5 72% 76.1 0.0
04 04:55 S 13 16.09 Fair CLR 16 10.3 69% 76.12 0.0
04 04:35 S 15 16.09 Fair CLR 16.2 10.1 67% 76.12 0.0
04 04:15 S 15 16.09 Fair CLR 16.5 9.9 65% 76.15 0.0
04 03:55 S 19 16.09 Fair CLR 17 9.5 62% 76.12 0.0
04 03:35 S 17 16.09 Fair CLR 16.6 9.8 64% 76.15 0.0
04 03:15 S 9 16.09 Fair CLR 17 9.7 62% 76.12 0.0
04 02:55 S 13 16.09 Fair CLR 17.1 9.6 62% 76.15 0.0
04 02:35 S 15 16.09 Fair CLR 17.2 9.7 62% 76.15 0.0
04 02:15 S 15 16.09 Fair CLR 17.4 9.8 61% 76.17 0.0
04 01:55 S 13 16.09 Fair CLR 17.4 10 62% 76.2 0.0
04 01:35 S 11 16.09 Fair CLR 17.5 10.1 62% 76.23 0.0
04 01:15 S 13 16.09 Fair CLR 17.5 10.1 62% 76.25 0.0
04 00:55 S 11 16.09 Fair CLR 17.4 10.1 25 17.4 62% 76.25 0.0
04 00:35 S 11 16.09 Fair CLR 17.9 9.8 59% 76.28 0.0
04 00:15 S 13 16.09 Fair CLR 18.1 9.7 58% 76.28 0.0
03 23:55 S 15 16.09 Fair CLR 18.6 9.5 56% 76.3 0.0
03 23:35 S 11 16.09 Fair CLR 18.8 9.2 54% 76.3 0.0
03 23:15 S 13 16.09 Fair CLR 18.7 9.1 54% 76.3 0.0
03 22:55 S 9 16.09 Fair CLR 18.3 9.4 56% 76.28 0.0
03 22:35 S 9 16.09 Fair CLR 19.6 8.7 50% 76.28 0.0
03 22:15 S 9 16.09 Fair CLR 20.1 8.4 47% 76.28 0.0
03 21:55 S 15 16.09 Fair CLR 20.6 8 44% 76.28 0.0
03 21:35 S 13 16.09 Fair CLR 20.7 8.5 46% 76.28 0.0
03 21:15 S 13 16.09 Fair CLR 20.9 8.7 46% 76.28 0.0
03 20:55 S 11 16.09 Fair CLR 21.3 9 45% 76.28 0.0
03 20:35 S 9 16.09 Fair CLR 22 9 44% 76.28 0.0
03 20:15 S 11 16.09 Fair CLR 22.5 8.7 41% 76.28 0.0
03 19:55 S 9 16.09 Fair CLR 22.7 8.9 41% 76.25 0.0
03 19:35 S 11 16.09 Fair CLR 23.4 9.2 41% 76.25 0.0
03 19:15 S 15 16.09 Fair CLR 24.5 8 35% 25 76.25 0.0
03 18:55 S 17 16.09 Fair CLR 25.1 7.6 27.2 25.1 33% 26 76.28 0.0
03 18:35 SW 17 16.09 Fair CLR 25.5 7.2 31% 26 76.28 0.0
03 18:15 SW 17 16.09 Fair CLR 26 6.6 29% 26 76.28 0.0
03 17:55 SW 24 16.09 Fair CLR 26.1 6.7 29% 26 76.28 0.0
03 17:35 SW 19 16.09 Fair CLR 26.3 7.7 31% 26 76.3 0.0
03 17:15 SW 19 G 28 16.09 Fair CLR 26.7 8.5 32% 26 76.3 0.0
03 16:55 SW 17 G 30 16.09 Partly Cloudy SCT075 26.7 7.9 30% 26 76.3 0.0
03 16:35 SW 20 16.09 Fair CLR 27 7.5 29% 26 76.33 0.0
03 16:15 SW 15 16.09 Fair CLR 27.1 7.6 29% 26 76.35 0.0
03 15:55 SW 24 16.09 Partly Cloudy SCT075 27 8.5 31% 26 76.35 0.0
03 15:35 SW 17 16.09 Partly Cloudy SCT075 26.7 9.3 33% 26 76.4 0.0
03 15:15 S 19 G 28 16.09 Fair CLR 26.5 8.6 32% 26 76.43 0.0
03 14:55 SW 20 G 28 16.09 Fair CLR 26.5 9.2 34% 26 76.43 0.0
03 14:35 S 19 16.09 Fair CLR 26.5 10.1 36% 26 76.45 0.0
03 14:15 SW 17 G 33 16.09 Fair CLR 26.3 10.7 38% 26 76.48 0.0
03 13:55 SW 19 G 33 16.09 Fair CLR 26 10.8 39% 26 76.5 0.0
03 13:35 SW 20 G 33 16.09 Fair CLR 25.7 10.9 40% 26 76.53 0.0
03 13:15 SW 17 G 30 16.09 Fair CLR 25.6 10.5 39% 26 76.56 0.0
03 12:55 SW 19 16.09 Fair CLR 25.5 11.4 25.5 12.6 41% 26 76.58 0.0
03 12:35 SW 17 16.09 Fair CLR 25 10.4 40% 26 76.61 0.0
03 12:15 SW 22 G 31 16.09 Fair CLR 24.6 10.3 41% 26 76.63 0.0
03 11:55 SW 20 16.09 Fair CLR 24.1 10.6 43% 25 76.63 0.0
03 11:35 SW 20 G 31 16.09 Fair CLR 24.1 10.9 44% 25 76.66 0.0
03 11:15 SW 22 G 31 16.09 Fair CLR 23.5 11.2 46% 76.66 0.0
03 10:55 SW 22 G 30 16.09 Fair CLR 23.1 11.4 48% 76.66 0.0
03 10:35 SW 19 G 31 16.09 Fair CLR 22.6 10.9 48% 76.66 0.0
03 10:15 SW 22 16.09 Fair CLR 21.8 11.3 51% 76.66 0.0
03 09:55 SW 19 16.09 Fair CLR 21 11.7 55% 76.68 0.0
03 09:35 SW 17 16.09 Fair CLR 20.2 11.6 58% 76.68 0.0
03 09:15 SW 15 16.09 Fair CLR 19.7 11.5 59% 76.66 0.0
03 08:55 SW 15 16.09 Fair CLR 18.5 11.4 64% 76.66 0.0
03 08:35 SW 15 16.09 Fair CLR 17.3 11.3 68% 76.66 0.0
03 08:15 S 9 16.09 Fair CLR 16 11.7 76% 76.66 0.0
03 07:55 S 9 16.09 Fair CLR 15 11.4 79% 76.66 0.0
03 07:35 S 9 16.09 Fair CLR 13.9 11.1 83% 76.66 0.0
03 07:15 S 9 16.09 Fair CLR 13.1 10.5 84% 76.63 0.0
03 06:55 S 9 16.09 Fair CLR 12.7 9.8 15.6 12 83% 76.63 0.0
03 06:35 S 6 16.09 Fair CLR 12.6 9.5 82% 76.63 0.0
03 06:15 S 6 16.09 Fair CLR 12.8 9.5 81% 76.61 0.0
03 05:55 S 7 16.09 Fair CLR 13.1 9.4 78% 76.58 0.0
03 05:35 Calm 16.09 Fair CLR 13.1 9.2 77% 76.58 0.0
03 05:15 S 6 16.09 Fair CLR 12.5 9.9 84% 76.58 0.0
03 04:55 Calm 16.09 Fair CLR 12.5 10.2 86% 76.58 0.0
03 04:35 Calm 16.09 Fair CLR 12 10.6 91% 76.58 0.0
03 04:15 Calm 16.09 Fair CLR 12 10.7 92% 76.58 0.0
03 03:55 Calm 16.09 Fair CLR 12 11.1 94% 76.56 0.0
03 03:35 Calm 16.09 Fair CLR 12.1 11.2 94% 76.56 0.0
03 03:15 Calm 16.09 Fair CLR 12.9 10.7 87% 76.58 0.0
03 02:55 Calm 16.09 Fair CLR 13.4 11 86% 76.58 0.0
03 02:35 Calm 16.09 Partly Cloudy SCT080 13.2 11.1 87% 76.58 0.0
03 02:15 Calm 16.09 Partly Cloudy SCT080 13.4 11 86% 76.58 0.0
03 01:55 Calm 16.09 Fair CLR 13.9 11 83% 76.58 0.0
03 01:35 Calm 16.09 Fair CLR 13.9 10.9 82% 76.58 0.0
03 01:15 Calm 16.09 Fair CLR 14.1 11 82% 76.58 0.0
03 00:55 S 6 16.09 Fair CLR 15.6 10.3 22.1 14.6 71% 76.56 0.0
03 00:35 S 6 16.09 Fair CLR 15 9.9 72% 76.58 0.0
03 00:15 S 7 16.09 Fair CLR 15.5 9.7 69% 76.56 0.0
02 23:55 S 6 16.09 Fair CLR 15.7 9.6 67% 76.56 0.0
02 23:35 S 6 16.09 Fair CLR 15.6 9.5 67% 76.56 0.0
02 23:15 S 7 16.09 Fair CLR 15.1 10.1 72% 76.56 0.0
02 22:55 SE 6 16.09 Fair CLR 15.5 9.8 69% 76.56 0.0
02 22:35 Calm 11.27 Fair CLR 15.1 10.9 76% 76.56 0.0
02 22:15 Calm 11.27 Fair CLR 15.9 10.1 69% 76.56 0.0
02 21:55 Calm 16.09 Fair CLR 17 9.7 62% 76.56 0.0
02 21:35 SE 6 16.09 Fair CLR 17.1 10.1 64% 76.53 0.0
02 21:15 S 6 16.09 Fair CLR 17 11.2 69% 76.53 0.0
02 20:55 Calm 16.09 Fair CLR 17.7 10.7 64% 76.5 0.0
02 20:35 Calm 16.09 Fair CLR 19.1 10.1 56% 76.5 0.0
02 20:15 Calm 11.27 Fair CLR 19.6 9.3 52% 76.48 0.0
02 19:55 Calm 16.09 Fair CLR 21.4 7.5 41% 76.48 0.0
02 19:35 Calm 16.09 Fair CLR 21.5 8.3 43% 76.45 0.0
02 19:15 Calm 16.09 Fair CLR 22 8.6 42% 76.45 0.0
02 18:55 N 11 16.09 Fair CLR 22.2 8.1 23.5 21.7 41% 76.45 0.0
02 18:35 N 9 16.09 Fair CLR 22.7 7.6 38% 76.45 0.0
02 18:15 NW 7 16.09 Fair CLR 23.2 7.1 36% 76.48 0.0
02 17:55 N 7 16.09 Fair CLR 23.3 6.5 34% 76.48 0.0
02 17:35 NW 13 16.09 Fair CLR 23.5 6.3 33% 76.48 0.0
02 17:15 N 9 16.09 Partly Cloudy SCT075 23.5 6.2 33% 76.48 0.0
02 16:55 NW 11 16.09 Fair CLR 22.9 6.9 36% 76.5 0.0
02 16:35 N 11 16.09 Fair CLR 23.5 5.7 32% 76.5 0.0
02 16:15 NW 11 16.09 Fair CLR 23.5 5.9 32% 76.53 0.0
02 15:55 Calm 16.09 Fair CLR 23.4 5.4 31% 76.53 0.0
02 15:35 N 9 16.09 Fair CLR 23.3 6 33% 76.56 0.0
02 15:15 NW 7 16.09 Fair CLR 23.1 5.6 32% 76.58 0.0
02 14:55 N 13 16.09 Fair CLR 22.8 5.7 33% 76.58 0.0
02 14:35 NW 11 16.09 Fair CLR 22.9 5.8 33% 76.61 0.0
02 14:15 Calm 16.09 Fair CLR 22.5 4.9 32% 76.63 0.0
02 13:55 N 7 16.09 Fair CLR 22.4 6.3 35% 76.63 0.0
02 13:35 W 11 16.09 Fair CLR 22.1 4.5 32% 76.66 0.0
02 13:15 NW 13 16.09 Fair CLR 22.1 5.5 34% 76.66 0.0
02 12:55 NW 6 16.09 Fair CLR 22 5.8 22 10 35% 76.68 0.0
02 12:35 NW 11 16.09 Fair CLR 21.7 4.9 34% 76.68 0.0
02 12:15 N 6 16.09 Fair CLR 21.3 5.9 37% 76.71 0.0
02 11:55 NW 7 16.09 Fair CLR 21 5.2 36% 76.71 0.0
02 11:35 N 6 16.09 Fair CLR 20.9 5.9 38% 76.71 0.0
02 11:15 N 7 16.09 Fair CLR 20.3 7.2 43% 76.71 0.0
02 10:55 Calm 16.09 Fair CLR 19.5 10.1 55% 76.68 0.0
02 10:35 Calm 16.09 Fair CLR 18.7 9.1 54% 76.68 0.0
02 10:15 N 6 16.09 Fair CLR 18.5 10.4 59% 76.68 0.0
02 09:55 N 9 16.09 Fair CLR 17.7 9.6 59% 76.68 0.0
02 09:35 N 9 16.09 Fair CLR 17 8.9 59% 76.68 0.0
02 09:15 Calm 16.09 Fair CLR 16 8.8 63% 76.66 0.0
02 08:55 N 7 16.09 Fair CLR 15.6 8.4 62% 76.66 0.0
Date Time (cdt) Wind (kph) Vis. (km) Weather Sky Cond. Air Dwpt Max. Min. Relative Humidity Wind Chill (°C) Heat Index (°C) altimeter (cm) sea level (mb) 1 hr 3 hr 6 hr
6 hour
Temperature (ºC) Pressure Precipitation (cm)